Time;durP1;ratioP1;P1;durP2;ratioP2;P2;SDS_P1;SDS_P2;PMS_P1;PMS_P2;Temp;Humidity;BMP_temperature;BMP_pressure;BME280_temperature;BME280_humidity;BME280_pressure;Samples;Min_cycle;Max_cycle;Signal;HPM_P1;HPM_P2
2022/05/01 00:00:28;;;;;;;45.30;23.77;;;;;;;;;;5037790;28;20045;-77
2022/05/01 00:02:56;;;;;;;51.17;24.50;;;;;;;;;;5032950;28;20050;-77
2022/05/01 00:05:22;;;;;;;48.88;23.58;;;;;;;;;;5032270;28;20128;-76
2022/05/01 00:07:49;;;;;;;46.67;24.05;;;;;;;;;;5033201;28;20047;-76
2022/05/01 00:10:16;;;;;;;49.88;23.70;;;;;;;;;;5032457;28;20049;-77
2022/05/01 00:12:45;;;;;;;50.75;24.55;;;;;;;;;;5032568;28;20041;-77
2022/05/01 00:15:11;;;;;;;54.13;25.17;;;;;;;;;;5032507;28;20050;-77
2022/05/01 00:17:38;;;;;;;50.70;26.35;;;;;;;;;;5033018;28;20496;-77
2022/05/01 00:20:06;;;;;;;53.15;27.17;;;;;;;;;;5033298;28;20459;-77
2022/05/01 00:22:33;;;;;;;49.42;24.38;;;;;;;;;;5034562;28;20451;-77
2022/05/01 00:25:00;;;;;;;51.78;25.13;;;;;;;;;;5032974;28;20061;-78
2022/05/01 00:27:27;;;;;;;55.72;24.48;;;;;;;;;;5032183;28;20095;-76
2022/05/01 00:29:56;;;;;;;53.03;26.58;;;;;;;;;;5032030;28;20056;-76
2022/05/01 00:32:23;;;;;;;51.63;25.00;;;;;;;;;;5032110;28;20508;-76
2022/05/01 00:37:33;;;;;;;47.80;23.60;;;;;;;;;;5032883;28;20115;-76
2022/05/01 00:40:00;;;;;;;54.25;26.27;;;;;;;;;;5032062;28;20049;-76
2022/05/01 00:42:27;;;;;;;53.80;25.25;;;;;;;;;;5032773;28;20140;-77
2022/05/01 00:44:55;;;;;;;46.28;25.08;;;;;;;;;;5032165;28;20099;-77
2022/05/01 00:47:22;;;;;;;51.92;25.00;;;;;;;;;;5049767;28;20106;-78
2022/05/01 00:49:49;;;;;;;52.60;25.33;;;;;;;;;;5059232;28;20052;-77
2022/05/01 00:52:15;;;;;;;54.88;25.67;;;;;;;;;;5071888;28;20049;-77
2022/05/01 00:54:44;;;;;;;47.55;22.90;;;;;;;;;;5064867;28;20045;-77
2022/05/01 00:57:11;;;;;;;43.05;21.67;;;;;;;;;;5052247;28;20049;-78
2022/05/01 00:59:38;;;;;;;48.38;22.40;;;;;;;;;;5051759;28;20076;-77
2022/05/01 01:02:08;;;;;;;43.85;21.67;;;;;;;;;;5051882;28;20122;-78
2022/05/01 01:04:35;;;;;;;50.22;23.27;;;;;;;;;;5052129;28;20072;-78
2022/05/01 01:07:04;;;;;;;47.08;23.05;;;;;;;;;;5051650;28;20071;-77
2022/05/01 01:09:31;;;;;;;52.45;24.80;;;;;;;;;;5051661;28;20943;-77
2022/05/01 01:14:42;;;;;;;49.75;23.45;;;;;;;;;;5051413;28;20056;-77
2022/05/01 01:17:11;;;;;;;55.28;24.40;;;;;;;;;;5051652;28;20080;-76
2022/05/01 01:19:38;;;;;;;52.90;23.85;;;;;;;;;;5051918;28;20052;-76
2022/05/01 01:22:10;;;;;;;56.97;25.15;;;;;;;;;;5052368;28;20044;-77
2022/05/01 01:24:38;;;;;;;48.53;22.10;;;;;;;;;;5051810;28;20136;-79
2022/05/01 01:27:06;;;;;;;48.22;21.52;;;;;;;;;;5051720;28;20416;-77
2022/05/01 01:32:16;;;;;;;47.97;22.25;;;;;;;;;;5039154;28;20045;-77
2022/05/01 01:34:44;;;;;;;48.47;22.42;;;;;;;;;;5051642;28;20052;-77
2022/05/01 01:37:12;;;;;;;50.53;22.73;;;;;;;;;;5051623;28;20458;-77
2022/05/01 01:39:40;;;;;;;48.90;22.55;;;;;;;;;;5053537;28;20055;-76
2022/05/01 01:42:09;;;;;;;52.45;23.63;;;;;;;;;;5055550;28;20099;-77
2022/05/01 01:44:38;;;;;;;52.10;24.52;;;;;;;;;;5055220;28;20056;-77
2022/05/01 01:47:06;;;;;;;51.88;23.63;;;;;;;;;;5039974;28;20045;-78
2022/05/01 01:49:32;;;;;;;45.58;23.20;;;;;;;;;;5035393;28;20059;-77
2022/05/01 01:51:59;;;;;;;54.53;24.73;;;;;;;;;;5035227;28;20562;-76
2022/05/01 01:54:28;;;;;;;53.13;24.60;;;;;;;;;;5035568;28;20046;-77
2022/05/01 01:56:54;;;;;;;51.33;23.02;;;;;;;;;;5034715;28;20053;-77
2022/05/01 01:59:22;;;;;;;55.08;24.77;;;;;;;;;;5035090;28;20046;-76
2022/05/01 02:01:49;;;;;;;53.75;24.40;;;;;;;;;;5034820;28;20428;-76
2022/05/01 02:04:16;;;;;;;50.30;23.75;;;;;;;;;;5035141;28;20095;-77
2022/05/01 02:06:44;;;;;;;72.65;24.42;;;;;;;;;;5034453;28;20508;-77
2022/05/01 02:09:13;;;;;;;52.50;24.38;;;;;;;;;;5034874;28;20088;-77
2022/05/01 02:11:41;;;;;;;53.28;23.88;;;;;;;;;;5034886;28;20053;-77
2022/05/01 02:14:10;;;;;;;52.00;23.38;;;;;;;;;;5034790;28;20529;-78
2022/05/01 02:16:36;;;;;;;61.17;24.30;;;;;;;;;;5034550;28;20041;-78
2022/05/01 02:19:03;;;;;;;59.30;26.38;;;;;;;;;;5034663;28;20046;-79
2022/05/01 02:21:36;;;;;;;59.67;25.55;;;;;;;;;;5034893;28;20127;-77
2022/05/01 02:24:07;;;;;;;60.55;27.48;;;;;;;;;;5035657;28;20065;-78
2022/05/01 02:26:35;;;;;;;63.28;26.77;;;;;;;;;;5035482;28;20057;-77
2022/05/01 02:29:05;;;;;;;63.17;26.55;;;;;;;;;;5035695;28;20081;-78
2022/05/01 02:31:33;;;;;;;60.58;25.52;;;;;;;;;;5035728;28;20140;-78
2022/05/01 02:33:59;;;;;;;65.22;27.33;;;;;;;;;;5035773;28;20045;-77
2022/05/01 02:36:26;;;;;;;66.53;28.05;;;;;;;;;;5041473;28;20113;-77
2022/05/01 02:38:53;;;;;;;68.45;28.83;;;;;;;;;;5044106;28;20049;-77
2022/05/01 02:41:20;;;;;;;66.25;27.48;;;;;;;;;;5042748;28;20041;-77
2022/05/01 02:43:47;;;;;;;63.85;25.35;;;;;;;;;;5043083;28;20041;-77
2022/05/01 02:46:15;;;;;;;64.57;27.60;;;;;;;;;;5044933;28;20045;-77
2022/05/01 02:48:43;;;;;;;71.75;31.25;;;;;;;;;;5056413;28;20091;-77
2022/05/01 02:51:10;;;;;;;64.57;27.67;;;;;;;;;;5055938;28;20076;-77
2022/05/01 02:53:38;;;;;;;64.72;28.42;;;;;;;;;;5056970;28;20095;-77
2022/05/01 02:56:05;;;;;;;65.78;28.15;;;;;;;;;;5056026;28;20045;-77
2022/05/01 02:58:32;;;;;;;71.68;30.38;;;;;;;;;;5056588;28;20079;-78
2022/05/01 03:01:00;;;;;;;80.70;33.72;;;;;;;;;;5055304;28;20131;-77
2022/05/01 03:03:29;;;;;;;77.43;30.33;;;;;;;;;;5054942;28;20128;-77
2022/05/01 03:05:58;;;;;;;77.15;31.25;;;;;;;;;;5053480;28;20476;-77
2022/05/01 03:08:27;;;;;;;70.45;28.92;;;;;;;;;;5055986;28;20415;-79
2022/05/01 03:10:54;;;;;;;76.53;31.90;;;;;;;;;;5058689;28;20206;-79
2022/05/01 03:13:21;;;;;;;79.07;29.48;;;;;;;;;;5058042;28;20041;-79
2022/05/01 03:15:47;;;;;;;75.32;31.90;;;;;;;;;;5062459;28;20118;-77
2022/05/01 03:23:44;;;;;;;76.72;30.15;;;;;;;;;;5051355;28;20059;-78
2022/05/01 03:26:11;;;;;;;73.75;31.80;;;;;;;;;;5062617;28;20566;-78
2022/05/01 03:28:39;;;;;;;81.50;32.00;;;;;;;;;;5062536;28;20056;-79
2022/05/01 03:31:09;;;;;;;73.60;30.42;;;;;;;;;;5062125;28;20049;-77
2022/05/01 03:33:36;;;;;;;72.65;28.88;;;;;;;;;;5061885;28;20049;-78
2022/05/01 03:36:06;;;;;;;76.38;30.52;;;;;;;;;;5060805;28;20063;-79
2022/05/01 03:38:36;;;;;;;73.72;29.13;;;;;;;;;;5060215;28;20055;-79
2022/05/01 03:41:04;;;;;;;74.47;31.83;;;;;;;;;;5060026;28;20059;-80
2022/05/01 03:43:33;;;;;;;83.10;31.90;;;;;;;;;;5060949;28;20049;-79
2022/05/01 03:46:00;;;;;;;70.30;30.77;;;;;;;;;;5050727;28;20132;-79
2022/05/01 03:48:27;;;;;;;76.13;30.33;;;;;;;;;;5036704;28;20558;-77
2022/05/01 03:50:54;;;;;;;73.47;32.05;;;;;;;;;;5036238;28;20049;-78
2022/05/01 03:53:23;;;;;;;78.80;30.95;;;;;;;;;;5036539;28;20091;-78
2022/05/01 03:55:51;;;;;;;75.40;31.67;;;;;;;;;;5036874;28;20127;-78
2022/05/01 03:58:18;;;;;;;77.50;31.05;;;;;;;;;;5035614;28;20056;-78
2022/05/01 04:00:47;;;;;;;74.78;31.85;;;;;;;;;;5037603;28;20115;-79
2022/05/01 04:03:14;;;;;;;80.85;33.33;;;;;;;;;;5036433;28;20136;-78
2022/05/01 04:05:41;;;;;;;83.68;33.15;;;;;;;;;;5035395;28;20049;-79
2022/05/01 04:08:09;;;;;;;86.05;33.05;;;;;;;;;;5036309;28;20056;-79
2022/05/01 04:10:38;;;;;;;81.13;32.88;;;;;;;;;;5036525;28;20136;-80
2022/05/01 04:13:06;;;;;;;75.13;31.38;;;;;;;;;;5036011;28;20088;-79
2022/05/01 04:15:33;;;;;;;83.88;31.48;;;;;;;;;;5035518;28;20061;-78
2022/05/01 04:18:02;;;;;;;84.07;33.05;;;;;;;;;;5035205;28;20099;-78
2022/05/01 04:20:29;;;;;;;79.32;31.35;;;;;;;;;;5035632;28;20053;-78
2022/05/01 04:22:57;;;;;;;85.68;34.33;;;;;;;;;;5034815;28;20148;-78
2022/05/01 04:25:26;;;;;;;83.13;32.45;;;;;;;;;;5035458;28;20073;-78
2022/05/01 04:27:59;;;;;;;81.30;32.25;;;;;;;;;;5035315;28;20103;-76
2022/05/01 04:30:27;;;;;;;76.30;30.45;;;;;;;;;;5034950;28;20049;-78
2022/05/01 04:32:56;;;;;;;77.07;31.13;;;;;;;;;;5036819;28;20045;-77
2022/05/01 04:35:25;;;;;;;79.10;33.55;;;;;;;;;;5036968;28;20049;-78
2022/05/01 04:37:52;;;;;;;74.18;31.38;;;;;;;;;;5036970;28;20058;-78
2022/05/01 04:40:20;;;;;;;73.75;31.33;;;;;;;;;;5041389;28;20119;-79
2022/05/01 04:42:47;;;;;;;71.80;30.15;;;;;;;;;;5037578;28;20049;-79
2022/05/01 04:45:15;;;;;;;68.93;28.48;;;;;;;;;;5036480;28;20103;-77
2022/05/01 04:47:42;;;;;;;65.38;27.48;;;;;;;;;;5036260;28;20046;-78
2022/05/01 04:50:11;;;;;;;65.53;30.27;;;;;;;;;;5036481;28;20552;-78
2022/05/01 04:52:38;;;;;;;57.40;27.23;;;;;;;;;;5036162;28;20073;-77
2022/05/01 04:55:07;;;;;;;60.47;26.73;;;;;;;;;;5035083;28;20053;-78
2022/05/01 04:57:33;;;;;;;64.70;27.95;;;;;;;;;;5034753;28;20046;-78
2022/05/01 05:00:01;;;;;;;60.92;26.73;;;;;;;;;;5035206;28;20092;-77
2022/05/01 05:02:37;;;;;;;59.97;28.80;;;;;;;;;;5035496;28;20109;-78
2022/05/01 05:05:05;;;;;;;63.53;28.42;;;;;;;;;;5035486;28;20128;-78
2022/05/01 05:07:32;;;;;;;61.60;28.88;;;;;;;;;;5035598;28;20049;-78
2022/05/01 05:09:58;;;;;;;58.30;26.05;;;;;;;;;;5034601;28;20506;-77
2022/05/01 05:12:25;;;;;;;61.67;28.85;;;;;;;;;;5035443;28;20115;-77
2022/05/01 05:14:55;;;;;;;57.78;26.30;;;;;;;;;;5038109;28;20045;-78
2022/05/01 05:17:23;;;;;;;61.72;28.27;;;;;;;;;;5038408;28;20488;-78
2022/05/01 05:19:51;;;;;;;59.35;27.65;;;;;;;;;;5039673;28;20091;-78
2022/05/01 05:22:18;;;;;;;55.42;25.38;;;;;;;;;;5039704;28;20504;-79
2022/05/01 05:24:45;;;;;;;56.22;26.17;;;;;;;;;;5039966;28;20106;-79
2022/05/01 05:27:12;;;;;;;60.65;28.45;;;;;;;;;;5040185;28;20463;-78
2022/05/01 05:29:40;;;;;;;58.92;29.10;;;;;;;;;;5041175;28;20067;-77
2022/05/01 05:32:08;;;;;;;56.47;26.13;;;;;;;;;;5040321;28;20071;-79
2022/05/01 05:34:35;;;;;;;61.03;27.88;;;;;;;;;;5040698;28;20091;-76
2022/05/01 05:37:03;;;;;;;62.65;29.83;;;;;;;;;;5040020;28;20045;-78
2022/05/01 05:39:30;;;;;;;56.65;27.13;;;;;;;;;;5039284;28;20045;-78
2022/05/01 05:41:57;;;;;;;62.40;26.83;;;;;;;;;;5038877;28;20045;-79
2022/05/01 05:44:24;;;;;;;55.78;25.65;;;;;;;;;;5051634;28;20049;-77
2022/05/01 05:46:51;;;;;;;55.97;26.40;;;;;;;;;;5067176;28;20071;-78
2022/05/01 05:49:18;;;;;;;57.50;26.23;;;;;;;;;;5060767;28;20102;-78
2022/05/01 05:51:45;;;;;;;61.80;28.30;;;;;;;;;;5060388;28;20057;-79
2022/05/01 05:54:13;;;;;;;61.25;27.30;;;;;;;;;;5059195;28;20049;-79
2022/05/01 05:56:40;;;;;;;56.85;26.88;;;;;;;;;;5058531;28;20495;-79
2022/05/01 05:59:07;;;;;;;60.05;27.73;;;;;;;;;;5059796;28;20053;-79
2022/05/01 06:01:34;;;;;;;52.70;25.75;;;;;;;;;;5058511;28;20067;-79
2022/05/01 06:04:00;;;;;;;58.47;28.27;;;;;;;;;;5064481;28;20044;-79
2022/05/01 06:06:27;;;;;;;56.72;25.75;;;;;;;;;;5068531;28;20041;-78
2022/05/01 06:08:54;;;;;;;60.03;28.35;;;;;;;;;;5066859;28;20053;-78
2022/05/01 06:11:22;;;;;;;56.55;27.05;;;;;;;;;;5066522;28;20583;-78
2022/05/01 06:13:49;;;;;;;57.40;25.95;;;;;;;;;;5058323;28;20049;-78
2022/05/01 06:16:16;;;;;;;55.67;25.73;;;;;;;;;;5057438;28;20051;-78
2022/05/01 06:18:42;;;;;;;58.65;26.83;;;;;;;;;;5058159;28;20110;-78
2022/05/01 06:21:09;;;;;;;55.05;26.77;;;;;;;;;;5056376;28;20040;-77
2022/05/01 06:23:36;;;;;;;55.05;25.98;;;;;;;;;;5058351;28;20049;-79
2022/05/01 06:26:05;;;;;;;49.40;23.75;;;;;;;;;;5057505;28;20045;-78
2022/05/01 06:28:33;;;;;;;57.08;25.45;;;;;;;;;;5058433;28;20083;-78
2022/05/01 06:31:01;;;;;;;56.35;24.92;;;;;;;;;;5059138;28;20041;-79
2022/05/01 06:33:29;;;;;;;54.60;27.02;;;;;;;;;;5059122;28;20048;-78
2022/05/01 06:35:57;;;;;;;53.50;24.35;;;;;;;;;;5058877;28;20053;-78
2022/05/01 06:38:24;;;;;;;53.60;24.33;;;;;;;;;;5060438;28;20488;-79
2022/05/01 06:40:50;;;;;;;55.13;24.45;;;;;;;;;;5058082;28;20428;-78
2022/05/01 06:43:18;;;;;;;51.30;25.92;;;;;;;;;;5057253;28;20049;-78
2022/05/01 06:45:48;;;;;;;48.55;24.20;;;;;;;;;;5052911;28;20037;-78
2022/05/01 06:48:15;;;;;;;47.15;24.05;;;;;;;;;;5037281;28;20061;-78
2022/05/01 06:50:42;;;;;;;50.63;25.63;;;;;;;;;;5036930;28;20199;-78
2022/05/01 06:53:09;;;;;;;48.05;22.75;;;;;;;;;;5043068;28;20041;-78
2022/05/01 06:55:36;;;;;;;46.30;23.73;;;;;;;;;;5047053;28;20120;-79
2022/05/01 06:58:03;;;;;;;44.97;23.77;;;;;;;;;;5046443;28;20049;-78
2022/05/01 07:00:30;;;;;;;45.15;21.75;;;;;;;;;;5044848;28;20099;-78
2022/05/01 07:02:58;;;;;;;45.45;23.60;;;;;;;;;;5052790;28;20094;-78
2022/05/01 07:05:25;;;;;;;42.65;22.00;;;;;;;;;;5048653;28;20045;-79
2022/05/01 07:07:54;;;;;;;45.85;23.15;;;;;;;;;;5047899;28;20053;-78
2022/05/01 07:10:22;;;;;;;47.05;22.73;;;;;;;;;;5051621;28;20049;-78
2022/05/01 07:12:49;;;;;;;44.80;22.52;;;;;;;;;;5051589;28;20128;-78
2022/05/01 07:15:16;;;;;;;46.95;24.60;;;;;;;;;;5049598;28;20448;-78
2022/05/01 07:17:43;;;;;;;40.40;22.23;;;;;;;;;;5050057;28;20056;-79
2022/05/01 07:20:12;;;;;;;48.50;24.85;;;;;;;;;;5051048;28;20081;-78
2022/05/01 07:22:39;;;;;;;48.17;24.25;;;;;;;;;;5055338;28;20041;-78
2022/05/01 07:25:07;;;;;;;43.55;22.25;;;;;;;;;;5052255;28;20077;-79
2022/05/01 07:27:34;;;;;;;41.90;22.02;;;;;;;;;;5051910;28;20103;-78
2022/05/01 07:30:01;;;;;;;43.38;23.02;;;;;;;;;;5050354;28;20041;-79
2022/05/01 07:32:28;;;;;;;48.80;25.48;;;;;;;;;;5052184;28;20103;-78
2022/05/01 07:34:55;;;;;;;44.70;23.10;;;;;;;;;;5049888;28;20049;-78
2022/05/01 07:37:24;;;;;;;44.25;24.25;;;;;;;;;;5052276;28;20056;-77
2022/05/01 07:39:52;;;;;;;42.80;21.58;;;;;;;;;;5064899;28;20045;-77
2022/05/01 07:42:19;;;;;;;51.17;24.83;;;;;;;;;;5065171;28;20101;-78
2022/05/01 07:44:46;;;;;;;44.90;23.35;;;;;;;;;;5064582;28;20075;-79
2022/05/01 07:47:12;;;;;;;42.88;21.80;;;;;;;;;;5045213;28;20416;-80
2022/05/01 07:49:39;;;;;;;45.50;23.73;;;;;;;;;;5040756;28;20049;-78
2022/05/01 07:52:07;;;;;;;49.40;24.23;;;;;;;;;;5042752;28;20054;-79
2022/05/01 07:54:36;;;;;;;50.28;24.92;;;;;;;;;;5054581;28;20081;-78
2022/05/01 07:57:03;;;;;;;47.85;25.60;;;;;;;;;;5056486;28;20049;-79
2022/05/01 07:59:29;;;;;;;41.28;22.70;;;;;;;;;;5057235;28;20053;-79
2022/05/01 08:01:56;;;;;;;46.72;23.48;;;;;;;;;;5043187;28;20041;-78
2022/05/01 08:04:29;;;;;;;50.17;23.88;;;;;;;;;;5040231;28;20057;-81
2022/05/01 08:06:56;;;;;;;47.55;24.67;;;;;;;;;;5036656;28;20046;-79
2022/05/01 08:09:23;;;;;;;50.65;25.75;;;;;;;;;;5043285;28;20045;-78
2022/05/01 08:11:52;;;;;;;52.22;26.38;;;;;;;;;;5057187;28;20045;-78
2022/05/01 08:14:20;;;;;;;46.13;23.15;;;;;;;;;;5057190;28;20049;-79
2022/05/01 08:16:47;;;;;;;48.75;23.92;;;;;;;;;;5057794;28;20136;-78
2022/05/01 08:21:58;;;;;;;46.35;23.73;;;;;;;;;;5058321;28;20111;-79
2022/05/01 08:24:25;;;;;;;45.83;23.88;;;;;;;;;;5058161;28;20048;-80
2022/05/01 08:26:53;;;;;;;43.90;23.20;;;;;;;;;;5057653;28;20122;-79
2022/05/01 08:29:20;;;;;;;45.22;22.88;;;;;;;;;;5056887;28;20550;-79
2022/05/01 08:31:47;;;;;;;45.08;22.42;;;;;;;;;;5055943;28;20099;-78
2022/05/01 08:34:14;;;;;;;43.75;22.40;;;;;;;;;;5056353;28;20056;-79
2022/05/01 08:36:41;;;;;;;44.13;22.13;;;;;;;;;;5055892;28;20081;-80
2022/05/01 08:39:09;;;;;;;47.58;23.65;;;;;;;;;;5056627;28;20110;-78
2022/05/01 08:41:37;;;;;;;42.80;21.65;;;;;;;;;;5055073;28;20049;-79
2022/05/01 08:44:06;;;;;;;40.28;21.30;;;;;;;;;;5056520;28;20114;-79
2022/05/01 08:46:46;;;;;;;45.50;22.50;;;;;;;;;;5048949;28;20061;-79
2022/05/01 08:49:17;;;;;;;43.47;21.45;;;;;;;;;;5043095;28;20478;-78
2022/05/01 08:51:44;;;;;;;42.92;21.10;;;;;;;;;;5036883;28;20552;-79
2022/05/01 08:54:12;;;;;;;40.65;21.67;;;;;;;;;;5035233;28;20045;-78
2022/05/01 08:56:41;;;;;;;43.97;23.30;;;;;;;;;;5035353;28;20049;-79
2022/05/01 08:59:10;;;;;;;41.03;21.92;;;;;;;;;;5034687;28;20493;-79
2022/05/01 09:01:39;;;;;;;40.00;20.65;;;;;;;;;;5034467;28;20049;-79
2022/05/01 09:04:06;;;;;;;40.20;21.35;;;;;;;;;;5034544;28;20050;-79
2022/05/01 09:06:34;;;;;;;39.38;21.00;;;;;;;;;;5033994;28;20136;-79
2022/05/01 09:09:05;;;;;;;37.97;22.30;;;;;;;;;;5045072;22;20057;-77
2022/05/01 09:14:18;;;;;;;38.50;20.48;;;;;;;;;;5032704;28;20064;-77
2022/05/01 09:17:25;;;;;;;47.67;24.02;;;;;;;;;;5033807;28;20045;-77
2022/05/01 09:19:54;;;;;;;43.67;23.98;;;;;;;;;;5055475;28;20036;-77
2022/05/01 09:22:22;;;;;;;37.95;21.20;;;;;;;;;;5052398;28;20075;-77
2022/05/01 09:24:53;;;;;;;39.65;21.60;;;;;;;;;;5033600;28;20064;-79
2022/05/01 09:27:29;;;;;;;42.25;21.75;;;;;;;;;;5035182;28;20128;-79
2022/05/01 09:30:11;;;;;;;41.95;21.95;;;;;;;;;;5034326;28;20061;-77
2022/05/01 09:32:40;;;;;;;46.45;22.30;;;;;;;;;;5034101;28;20053;-78
2022/05/01 09:35:08;;;;;;;45.90;24.20;;;;;;;;;;5033498;28;20057;-76
2022/05/01 09:37:35;;;;;;;43.22;22.65;;;;;;;;;;5032897;28;20049;-77
2022/05/01 09:40:01;;;;;;;42.20;21.33;;;;;;;;;;5032578;28;20103;-77
2022/05/01 09:42:34;;;;;;;38.90;21.42;;;;;;;;;;5032468;28;20041;-77
2022/05/01 09:45:06;;;;;;;40.20;22.98;;;;;;;;;;5032903;28;20045;-77
2022/05/01 09:47:39;;;;;;;40.63;21.05;;;;;;;;;;5032238;28;20149;-76
2022/05/01 09:50:07;;;;;;;44.40;22.50;;;;;;;;;;5031144;28;20053;-76
2022/05/01 09:52:54;;;;;;;41.03;21.95;;;;;;;;;;5031840;28;20049;-77
2022/05/01 09:55:21;;;;;;;40.17;21.05;;;;;;;;;;5034012;28;20421;-79
2022/05/01 09:57:48;;;;;;;42.72;21.80;;;;;;;;;;5035053;28;20060;-80
2022/05/01 10:00:15;;;;;;;41.42;23.05;;;;;;;;;;5036456;28;20229;-76
2022/05/01 10:02:43;;;;;;;43.80;23.65;;;;;;;;;;5038468;28;20046;-81
2022/05/01 10:05:11;;;;;;;43.85;24.25;;;;;;;;;;5038350;28;20053;-77
2022/05/01 10:07:44;;;;;;;45.65;23.75;;;;;;;;;;5037800;28;20041;-81
2022/05/01 10:10:12;;;;;;;47.22;23.30;;;;;;;;;;5037403;28;20045;-76
2022/05/01 10:12:45;;;;;;;45.53;23.83;;;;;;;;;;5036138;28;20108;-76
2022/05/01 10:15:16;;;;;;;42.63;22.98;;;;;;;;;;5036262;28;20041;-76
2022/05/01 10:17:45;;;;;;;40.53;22.77;;;;;;;;;;5036630;28;20103;-76
2022/05/01 10:20:14;;;;;;;40.15;22.27;;;;;;;;;;5033910;28;20056;-76
2022/05/01 10:22:42;;;;;;;40.03;22.35;;;;;;;;;;5015363;28;20046;-77
2022/05/01 10:25:11;;;;;;;39.28;22.23;;;;;;;;;;5015301;28;20049;-76
2022/05/01 10:27:47;;;;;;;39.67;21.33;;;;;;;;;;5015154;28;20104;-75
2022/05/01 10:33:41;;;;;;;38.80;21.55;;;;;;;;;;5015119;28;20100;-75
2022/05/01 10:36:35;;;;;;;37.83;21.40;;;;;;;;;;5014683;28;20071;-76
2022/05/01 10:39:14;;;;;;;34.72;19.13;;;;;;;;;;5014907;28;20054;-76
2022/05/01 10:41:42;;;;;;;32.85;19.45;;;;;;;;;;5014880;28;20402;-78
2022/05/01 10:44:26;;;;;;;36.72;20.58;;;;;;;;;;5014394;28;20507;-77
2022/05/01 10:46:58;;;;;;;35.97;19.75;;;;;;;;;;5028358;28;20049;-76
2022/05/01 10:49:37;;;;;;;33.38;19.17;;;;;;;;;;5034554;28;20049;-76
2022/05/01 10:52:20;;;;;;;32.97;18.55;;;;;;;;;;5031358;28;20504;-77
2022/05/01 10:54:51;;;;;;;33.20;19.40;;;;;;;;;;5027195;28;20054;-77
2022/05/01 10:57:25;;;;;;;32.92;18.25;;;;;;;;;;5023772;28;20455;-76
2022/05/01 11:00:10;;;;;;;27.83;17.02;;;;;;;;;;5024460;28;20065;-76
2022/05/01 11:02:46;;;;;;;30.17;18.08;;;;;;;;;;5026352;28;20111;-77
2022/05/01 11:05:41;;;;;;;30.40;18.50;;;;;;;;;;5028487;28;20053;-79
2022/05/01 11:08:14;;;;;;;30.10;17.35;;;;;;;;;;5025220;28;20114;-77
2022/05/01 11:10:42;;;;;;;30.85;19.00;;;;;;;;;;5024335;28;20045;-77
2022/05/01 11:13:13;;;;;;;33.85;19.60;;;;;;;;;;5025357;28;20071;-79
2022/05/01 11:15:45;;;;;;;29.55;19.05;;;;;;;;;;5024525;28;20046;-77
2022/05/01 11:18:13;;;;;;;31.38;18.88;;;;;;;;;;5024625;28;20085;-77
2022/05/01 11:20:43;;;;;;;29.55;18.23;;;;;;;;;;5027411;28;20042;-78
2022/05/01 11:23:31;;;;;;;29.85;18.88;;;;;;;;;;5023940;28;20053;-77
2022/05/01 11:26:22;;;;;;;30.17;18.98;;;;;;;;;;5023696;28;20509;-77
2022/05/01 11:28:50;;;;;;;;;;;;;;;;;;5016438;28;20496;-77
2022/05/01 11:31:48;;;;;;;31.42;18.55;;;;;;;;;;5029379;28;19967;-78
2022/05/01 11:34:49;;;;;;;31.05;18.38;;;;;;;;;;5019364;28;20068;-77
2022/05/01 11:37:18;;;;;;;28.42;18.60;;;;;;;;;;5025195;28;20056;-78
2022/05/01 11:40:23;;;;;;;30.25;18.10;;;;;;;;;;5028170;28;20042;-78
2022/05/01 11:42:51;;;;;;;32.63;19.50;;;;;;;;;;4964153;28;20047;-77
2022/05/01 11:45:19;;;;;;;30.50;18.77;;;;;;;;;;4958278;28;20047;-78
2022/05/01 11:47:51;;;;;;;27.48;17.95;;;;;;;;;;4996259;28;20433;-77
2022/05/01 11:50:24;;;;;;;29.55;18.70;;;;;;;;;;5023530;28;20508;-77
2022/05/01 11:52:53;;;;;;;30.75;19.70;;;;;;;;;;5025365;28;20073;-78
2022/05/01 11:55:21;;;;;;;30.67;19.02;;;;;;;;;;5024005;28;20104;-78
2022/05/01 12:03:34;;;;;;;27.98;18.20;;;;;;;;;;5027231;28;20087;-78
2022/05/01 12:06:01;;;;;;;26.67;17.85;;;;;;;;;;5026907;28;20056;-78
2022/05/01 12:08:32;;;;;;;28.15;17.58;;;;;;;;;;5026070;28;20095;-77
2022/05/01 12:11:06;;;;;;;26.35;17.50;;;;;;;;;;5022022;28;20652;-77
2022/05/01 12:13:34;;;;;;;24.50;16.30;;;;;;;;;;5019603;28;20129;-76
2022/05/01 12:16:07;;;;;;;23.15;16.80;;;;;;;;;;5015402;28;20081;-78
2022/05/01 12:18:34;;;;;;;26.95;17.10;;;;;;;;;;5023907;28;20100;-76
2022/05/01 12:21:19;;;;;;;24.65;17.38;;;;;;;;;;5019206;28;20050;-78
2022/05/01 12:23:49;;;;;;;23.75;16.13;;;;;;;;;;5022227;28;20046;-77
2022/05/01 12:26:16;;;;;;;24.60;17.77;;;;;;;;;;5021489;28;20034;-77
2022/05/01 12:28:43;;;;;;;24.05;15.98;;;;;;;;;;5021357;28;20132;-79
2022/05/01 12:31:10;;;;;;;24.70;16.35;;;;;;;;;;5020792;28;20116;-77
2022/05/01 12:33:37;;;;;;;32.80;23.30;;;;;;;;;;5021900;28;20124;-76
2022/05/01 12:36:04;;;;;;;33.35;23.20;;;;;;;;;;5020055;28;20050;-79
2022/05/01 12:38:34;;;;;;;44.10;30.13;;;;;;;;;;5019774;28;20045;-77
2022/05/01 12:43:59;;;;;;;27.23;18.50;;;;;;;;;;5021729;28;20045;-77
2022/05/01 12:46:28;;;;;;;26.65;17.73;;;;;;;;;;5019569;28;20053;-79
2022/05/01 12:48:56;;;;;;;25.83;18.63;;;;;;;;;;5019852;28;20065;-77
2022/05/01 12:51:24;;;;;;;25.30;17.65;;;;;;;;;;5030849;28;20370;-77
2022/05/01 12:54:08;;;;;;;24.70;16.83;;;;;;;;;;5031392;28;20052;-76
2022/05/01 12:56:36;;;;;;;24.73;16.73;;;;;;;;;;5016377;28;20050;-77
2022/05/01 12:59:25;;;;;;;25.73;16.98;;;;;;;;;;5023062;28;20515;-77
2022/05/01 13:01:52;;;;;;;25.42;17.42;;;;;;;;;;5025347;28;20133;-77
2022/05/01 13:04:23;;;;;;;24.38;16.70;;;;;;;;;;5023910;28;20500;-77
2022/05/01 13:06:52;;;;;;;26.33;17.60;;;;;;;;;;5017644;28;20495;-77
2022/05/01 13:09:20;;;;;;;25.63;16.77;;;;;;;;;;5024560;28;20057;-76
2022/05/01 13:12:05;;;;;;;26.35;18.00;;;;;;;;;;4994672;28;20069;-77
2022/05/01 13:14:34;;;;;;;24.00;17.17;;;;;;;;;;5012519;28;20389;-77
2022/05/01 13:17:11;;;;;;;25.83;17.48;;;;;;;;;;5024873;28;20046;-77
2022/05/01 13:19:39;;;;;;;26.88;19.17;;;;;;;;;;5017513;28;20038;-78
2022/05/01 13:22:07;;;;;;;23.30;16.38;;;;;;;;;;5018768;28;20069;-76
2022/05/01 13:24:35;;;;;;;25.15;16.90;;;;;;;;;;5020876;28;20049;-76
2022/05/01 13:27:05;;;;;;;24.55;17.27;;;;;;;;;;5016996;28;20045;-76
2022/05/01 13:29:33;;;;;;;23.67;16.35;;;;;;;;;;5013871;28;20053;-77
2022/05/01 13:32:03;;;;;;;23.90;16.52;;;;;;;;;;5019434;28;20042;-77
2022/05/01 13:34:30;;;;;;;24.17;16.42;;;;;;;;;;5024217;28;20054;-77
2022/05/01 13:36:59;;;;;;;24.15;17.20;;;;;;;;;;5022542;28;20104;-77
2022/05/01 13:44:44;;;;;;;24.60;16.53;;;;;;;;;;5028082;28;20075;-76
2022/05/01 13:45:00;;;;;;;22.85;15.93;;;;;;;;;;5027858;28;20103;-75
2022/05/01 13:47:27;;;;;;;24.65;16.58;;;;;;;;;;5015871;28;20519;-76
2022/05/01 13:49:55;;;;;;;24.00;16.55;;;;;;;;;;5016402;28;20050;-76
2022/05/01 13:52:23;;;;;;;24.00;16.00;;;;;;;;;;5019461;28;20045;-77
2022/05/01 13:54:51;;;;;;;21.10;15.48;;;;;;;;;;5021654;28;20424;-77
2022/05/01 13:57:20;;;;;;;23.08;15.90;;;;;;;;;;5033431;28;20050;-78
2022/05/01 13:59:47;;;;;;;23.17;16.30;;;;;;;;;;5030106;28;20065;-78
2022/05/01 14:02:14;;;;;;;27.00;18.08;;;;;;;;;;5023380;28;20115;-76
2022/05/01 14:04:41;;;;;;;22.38;15.82;;;;;;;;;;5033637;28;20053;-77
2022/05/01 14:07:08;;;;;;;26.08;18.23;;;;;;;;;;5035556;28;20041;-76
2022/05/01 14:09:35;;;;;;;26.08;18.30;;;;;;;;;;5033200;28;20582;-77
2022/05/01 14:12:03;;;;;;;21.30;15.57;;;;;;;;;;5033859;28;20432;-77
2022/05/01 14:14:31;;;;;;;23.85;16.17;;;;;;;;;;5033098;28;20239;-78
2022/05/01 14:16:58;;;;;;;24.98;17.30;;;;;;;;;;5033671;28;20091;-77
2022/05/01 14:19:27;;;;;;;31.10;21.08;;;;;;;;;;5033550;28;20050;-77
2022/05/01 14:21:56;;;;;;;27.75;19.10;;;;;;;;;;5033762;28;20385;-78
2022/05/01 14:24:24;;;;;;;27.02;18.15;;;;;;;;;;5017469;28;20100;-77
2022/05/01 14:26:51;;;;;;;23.98;17.10;;;;;;;;;;5014009;28;20053;-77
2022/05/01 14:29:18;;;;;;;28.88;18.85;;;;;;;;;;5017836;28;20515;-77
2022/05/01 14:31:52;;;;;;;27.55;17.58;;;;;;;;;;5016109;28;20096;-77
2022/05/01 14:34:23;;;;;;;28.00;18.20;;;;;;;;;;5037351;28;20072;-77
2022/05/01 14:36:54;;;;;;;27.60;19.30;;;;;;;;;;5037824;28;20748;-77
2022/05/01 14:39:23;;;;;;;25.75;17.90;;;;;;;;;;5029851;28;20049;-77
2022/05/01 14:41:52;;;;;;;27.08;18.48;;;;;;;;;;5035598;28;20045;-78
2022/05/01 14:44:28;;;;;;;25.27;18.15;;;;;;;;;;5033937;28;20087;-78
2022/05/01 14:46:58;;;;;;;26.23;19.73;;;;;;;;;;5020331;28;20050;-78
2022/05/01 14:49:35;;;;;;;27.70;18.83;;;;;;;;;;5014278;28;20057;-78
2022/05/01 14:52:07;;;;;;;28.90;19.90;;;;;;;;;;5013830;28;20081;-77
2022/05/01 14:54:36;;;;;;;29.48;18.80;;;;;;;;;;5013891;28;20042;-77
2022/05/01 14:57:09;;;;;;;27.05;18.80;;;;;;;;;;5013988;28;20054;-78
2022/05/01 15:08:04;;;;;;;28.75;19.08;;;;;;;;;;5013580;28;20183;-78
2022/05/01 15:10:31;;;;;;;26.65;19.13;;;;;;;;;;5012747;28;20053;-78
2022/05/01 15:12:58;;;;;;;27.77;19.23;;;;;;;;;;5035908;22;20438;-76